Weather observations for the past three days for
Albion Municipal Airport
Metric (Imperial)
Date Time (cdt) Wind (kph) Vis. (km) Weather Sky Cond. Temperature (ºC) Relative Humidity Wind Chill (°C) Heat Index (°C) Pressure Precipitation (cm)
Air Dwpt 6 hour altimeter (cm) sea level (mb) 1 hr 3 hr 6 hr
Max. Min.
08 06:55 Calm 16.09 Partly Cloudy SCT100 9.1 1.8 12.7 8.7 61% 75.72 0.0
08 06:35 Calm 16.09 Mostly Cloudy BKN100 9.5 1.3 57% 75.69 0.0
08 06:15 Calm 16.09 Mostly Cloudy SCT070 BKN090 BKN110 10.1 0.8 53% 75.72 0.0
08 05:55 Calm 16.09 Mostly Cloudy BKN090 BKN110 10.1 2.6 60% 75.74 0.0
08 05:35 Calm 16.09 Overcast OVC090 11.1 2.5 56% 75.74 0.0
08 05:15 Calm 16.09 Overcast OVC100 10.8 3 59% 75.74 0.0
08 04:55 Calm 16.09 Overcast OVC090 11.8 0.9 47% 75.74 0.0
08 04:35 E 7 16.09 Overcast OVC080 12.7 -0.1 42% 75.74 0.0
08 04:15 SE 6 16.09 Overcast OVC080 11.2 1.9 53% 75.74 0.0
08 03:55 Calm 16.09 Light Rain SCT070 BKN080 OVC100 12.2 -0.9 41% 75.74 0.0
08 03:35 Calm 16.09 Overcast SCT070 SCT080 OVC100 9.7 4.4 70% 75.79 0.0
08 03:19 Calm 16.09 Overcast OVC100 10 2 58% 75.77 0.0
08 02:35 Calm 16.09 Overcast OVC110 10.5 1.9 56% 75.79 0.0
08 02:15 Calm 16.09 Overcast OVC110 10.5 1.5 54% 75.82 0.0
08 01:55 Calm 16.09 Overcast OVC110 10.4 2.7 59% 75.82 0.0
08 01:35 Calm 16.09 Overcast OVC110 10.4 1.1 53% 75.84 0.0
08 01:15 Calm 16.09 Overcast OVC110 10.2 2.1 58% 75.82 0.0
08 00:55 Calm 16.09 Overcast OVC110 10.4 1.9 19.5 9.1 56% 75.79 0.0
08 00:35 Calm 16.09 Overcast OVC120 9.5 1.5 58% 75.77 0.0
08 00:15 Calm 16.09 Overcast OVC120 10.6 0.1 49% 75.77 0.0
07 23:55 Calm 16.09 Mostly Cloudy BKN120 10.9 0.8 50% 75.79 0.0
07 23:35 Calm 16.09 Partly Cloudy SCT120 11.6 -1.4 41% 75.77 0.0
07 23:15 Calm 16.09 Partly Cloudy SCT120 11.8 -0.5 43% 75.77 0.0
07 22:55 Calm 16.09 Partly Cloudy SCT120 12.7 -0.5 40% 75.77 0.0
07 22:35 Calm 16.09 Partly Cloudy SCT120 13.1 -0.3 40% 75.77 0.0
07 21:55 Calm 11.27 Overcast OVC110 12.7 0.1 42% 75.74 0.0
07 21:35 NE 9 16.09 Overcast OVC110 14.8 -3 29% 75.74 0.0
07 21:15 NE 11 16.09 Mostly Cloudy SCT100 BKN120 14.1 -3.9 29% 75.74 0.0
07 20:55 NE 9 16.09 Overcast OVC100 13.5 -3.4 31% 75.72 0.0
07 20:35 NE 11 16.09 Mostly Cloudy BKN110 15.1 -2.9 29% 75.72 0.0
07 20:15 NE 11 16.09 Fair CLR 15.1 -3 29% 75.69 0.0
07 19:55 N 6 16.09 Fair CLR 17.5 -1.8 27% 75.69 0.0
07 19:35 NE 9 16.09 Fair CLR 18.9 -3.6 22% 75.69 0.0
07 19:15 N 6 16.09 Partly Cloudy SCT110 19.3 -5.4 18% 75.72 0.0
07 18:55 N 7 16.09 Mostly Cloudy BKN120 18.7 -2.6 20.6 17.5 24% 75.72 0.0
07 18:35 NW 11 16.09 Overcast OVC120 19.3 -2.1 24% 75.72 0.0
07 18:15 NW 13 16.09 Mostly Cloudy BKN120 20.2 -2.3 22% 75.72 0.0
07 17:55 N 11 16.09 Partly Cloudy SCT120 17.9 -2.1 26% 75.72 0.0
07 17:35 N 13 16.09 Fair CLR 19.6 -2.6 22% 75.72 0.0
07 17:15 NW 19 16.09 Partly Cloudy SCT120 20.1 -2.2 22% 75.72 0.0
07 16:55 NW 11 16.09 Fair CLR 19.8 -3.8 20% 75.72 0.0
07 16:35 Calm 16.09 Fair CLR 19.5 -5.4 18% 75.72 0.0
07 16:15 NW 13 G 28 16.09 Fair CLR 20.5 -4.1 19% 75.74 0.0
07 15:55 Calm 16.09 Fair CLR 19.9 -5.1 18% 75.74 0.0
07 15:35 N 9 G 15 16.09 Fair CLR 20.1 -2.7 21% 75.77 0.0
07 15:15 NW 6 16.09 Fair CLR 20.1 -3.3 20% 75.77 0.0
07 14:35 NE 7 16.09 Fair CLR 19.7 -2.7 22% 75.79 0.0
07 14:15 N 24 G 30 16.09 Fair CLR 19.3 -2.5 23% 75.79 0.0
07 13:55 W 19 16.09 Fair CLR 19.2 -2.2 24% 75.79 0.0
07 13:35 NW 6 16.09 Fair CLR 18.6 -2.5 24% 75.79 0.0
07 13:15 NW 15 16.09 Fair CLR 18.5 -2.8 24% 75.79 0.0
07 12:55 N 7 16.09 Fair CLR 18.4 -1.4 18.6 6.2 26% 75.79 0.0
07 12:15 N 7 16.09 Fair CLR 17.5 -1.3 28% 75.79 0.0
07 11:55 Calm 16.09 Fair CLR 16.9 -0.3 31% 75.82 0.0
07 11:35 N 9 16.09 Fair CLR 16.8 0.4 33% 75.79 0.0
07 10:55 N 15 16.09 Fair CLR 14.9 2.2 43% 75.79 0.0
07 10:35 N 11 16.09 Fair CLR 14.1 2.2 45% 75.82 0.0
07 10:15 N 15 16.09 Fair CLR 13.9 2.1 45% 75.79 0.0
07 09:55 NW 9 16.09 Fair CLR 13.1 1.7 46% 75.82 0.0
07 09:35 W 11 16.09 Fair CLR 12.1 2.2 51% 75.82 0.0
07 09:15 W 19 G 26 16.09 Fair CLR 11.5 2.4 54% 75.79 0.0
07 08:55 W 11 16.09 Fair CLR 10.4 2.2 57% 75.82 0.0
07 08:35 W 11 16.09 Fair CLR 9.8 2.2 59% 8 75.79 0.0
07 08:15 W 13 16.09 Fair CLR 9.1 2.2 62% 7 75.84 0.0
07 07:55 SW 13 16.09 Fair CLR 8.3 2.3 66% 6 75.79 0.0
07 07:35 SW 11 16.09 Fair CLR 7.5 2.1 69% 6 75.79 0.0
07 07:15 SW 13 16.09 Fair CLR 6.6 2 73% 4 75.79 0.0
07 06:55 SW 17 16.09 Fair CLR 6.1 2 6.6 4.9 75% 3 75.79 0.0
07 06:35 SW 19 16.09 Fair CLR 5.4 1.8 78% 2 75.79 0.0
07 05:55 SW 13 16.09 Fair CLR 5.8 2 77% 3 75.84 0.0
07 05:35 W 17 16.09 Fair CLR 6.1 2 75% 3 75.84 0.0
07 05:15 SW 13 16.09 Fair CLR 6 2 76% 4 75.87 0.0
07 04:55 SW 15 16.09 Fair CLR 6 2 76% 3 75.87 0.0
07 04:35 SW 13 16.09 Fair CLR 6.1 2 75% 4 75.87 0.0
07 04:15 SW 15 16.09 Fair CLR 6.5 2 73% 4 75.9 0.0
07 03:55 SW 17 16.09 Fair CLR 6.6 2 73% 4 75.9 0.0
07 03:35 SW 15 16.09 Fair CLR 6.5 2 73% 4 75.92 0.0
07 03:15 SW 13 16.09 Fair CLR 5.8 1.5 74% 3 75.92 0.0
07 02:55 SW 9 16.09 Fair CLR 5.5 1 73% 4 75.95 0.0
07 02:35 SW 9 16.09 Fair CLR 5 0.4 72% 3 75.97 0.0
07 02:15 Calm 16.09 Fair CLR 5 0 70% 76 0.0
07 01:55 Calm 16.09 Fair CLR 5.5 0 68% 76.02 0.0
07 01:35 W 7 16.09 Fair CLR 6.2 0 65% 5 76.05 0.0
07 01:15 SW 9 16.09 Fair CLR 6.5 0.1 64% 5 76.07 0.0
07 00:55 SW 9 16.09 Fair CLR 6.2 -0.3 15 4 63% 5 76.07 0.0
07 00:35 W 6 16.09 Fair CLR 7.3 -0.5 58% 76.07 0.0
07 00:15 SW 7 16.09 Fair CLR 7 -1.2 56% 6 76.1 0.0
06 23:35 Calm 16.09 Fair CLR 5.7 -4.4 49% 76.12 0.0
06 23:15 Calm 16.09 Fair CLR 4.1 -4.2 55% 76.12 0.0
06 22:55 Calm 16.09 Partly Cloudy SCT100 4.4 -4 55% 76.12 0.0
06 22:35 Calm 16.09 Partly Cloudy SCT100 5.3 -4.7 49% 76.15 0.0
06 22:15 Calm 16.09 Mostly Cloudy BKN100 7.7 -5 41% 76.15 0.0
06 21:55 Calm 16.09 Overcast OVC110 8.5 -4.7 39% 76.15 0.0
06 21:35 Calm 16.09 Overcast OVC110 8.1 -3.9 43% 76.15 0.0
06 20:55 NW 7 16.09 Mostly Cloudy BKN100 10.2 -6 32% 76.12 0.0
06 20:35 Calm 16.09 Mostly Cloudy BKN100 11.4 -5.5 30% 76.12 0.0
06 20:15 W 6 16.09 Partly Cloudy SCT100 13 -6.6 25% 76.12 0.0
06 19:55 W 9 16.09 Partly Cloudy SCT100 13.7 -7.9 22% 76.12 0.0
06 19:35 W 11 16.09 Mostly Cloudy BKN100 14.2 -7.1 22% 76.12 0.0
06 19:15 NW 13 16.09 Partly Cloudy SCT100 14.2 -7.3 22% 76.15 0.0
06 18:55 NW 17 G 26 16.09 Mostly Cloudy BKN100 15 -6.8 15.7 11.5 22% 76.15 0.0
06 18:35 NW 19 G 30 16.09 Mostly Cloudy BKN100 14 -7.7 22% 76.17 0.0
06 18:15 W 20 16.09 Overcast OVC090 15 -7.1 21% 76.17 0.0
06 17:55 NW 17 G 30 16.09 Mostly Cloudy BKN090 13.9 -6.8 23% 76.17 0.0
06 17:35 W 20 G 28 16.09 Mostly Cloudy BKN090 15.2 -6.5 22% 76.2 0.0
06 17:15 W 17 G 30 16.09 Mostly Cloudy BKN090 14.9 -7.3 21% 76.2 0.0
06 16:55 NW 15 G 33 16.09 Mostly Cloudy BKN090 14.8 -6.8 22% 76.23 0.0
06 16:35 W 17 G 26 16.09 Mostly Cloudy BKN090 14.9 -6.1 23% 76.25 0.0
06 16:15 NW 17 G 30 16.09 Partly Cloudy SCT090 14.4 -6.2 24% 76.25 0.0
06 15:55 W 13 G 37 16.09 Fair CLR 14.5 -6.7 23% 76.3 0.0
06 15:35 W 13 G 35 16.09 Partly Cloudy SCT085 14.2 -7 23% 76.3 0.0
06 15:15 W 13 G 26 16.09 Partly Cloudy SCT085 13.8 -5.2 27% 76.33 0.0
06 14:55 N 19 G 41 16.09 Mostly Cloudy BKN085 13.9 -5.7 25% 76.33 0.0
06 14:35 NW 15 G 35 16.09 Mostly Cloudy BKN075 13.2 -5 28% 76.35 0.0
06 14:15 N 19 G 31 16.09 Mostly Cloudy BKN075 13.2 -5.2 28% 76.38 0.0
06 13:55 N 17 16.09 Mostly Cloudy BKN075 13 -5.6 27% 76.38 0.0
06 13:35 NW 13 G 31 16.09 Mostly Cloudy BKN075 11.9 -5.6 29% 76.4 0.0
06 13:15 NW 17 G 39 16.09 Partly Cloudy SCT075 11.9 -6.2 28% 76.4 0.0
06 12:55 NW 20 G 37 16.09 Partly Cloudy SCT075 12.4 -4.9 12.7 1.7 30% 76.43 0.0
06 12:35 NW 20 G 30 16.09 Mostly Cloudy BKN075 11.2 -6.1 29% 76.45 0.0
06 12:15 NW 15 G 33 16.09 Mostly Cloudy BKN075 11.9 -5.3 30% 76.45 0.0
06 11:55 NW 15 16.09 Mostly Cloudy BKN075 11.5 -4.8 32% 76.45 0.0
06 11:35 NW 15 G 28 16.09 Mostly Cloudy BKN075 11.2 -5.3 31% 76.48 0.0
06 11:15 NW 24 G 35 16.09 Partly Cloudy SCT065 10.8 -5.3 32% 76.48 0.0
06 10:55 NW 19 G 30 16.09 Partly Cloudy SCT065 10.9 -4.6 34% 76.48 0.0
06 10:35 NW 17 G 37 16.09 Fair CLR 10.6 -5.2 33% 76.48 0.0
06 10:15 NW 13 G 30 16.09 Fair CLR 10.1 -4.9 35% 76.48 0.0
06 09:55 NW 11 16.09 Fair CLR 9.8 -4.2 37% 8 76.48 0.0
06 09:35 NW 17 16.09 Fair CLR 9.4 -3.7 40% 7 76.48 0.0
06 09:15 NW 9 16.09 Fair CLR 8.1 -3.3 45% 7 76.48 0.0
06 08:55 NW 17 16.09 Fair CLR 7.2 -3.1 48% 5 76.48 0.0
06 08:35 NW 13 16.09 Fair CLR 6.7 -2.8 51% 4 76.45 0.0
06 08:15 NW 9 16.09 Fair CLR 5.1 -2.5 58% 3 76.45 0.0
06 07:55 NW 7 16.09 Partly Cloudy SCT100 4.1 -2.9 61% 3 76.45 0.0
06 07:35 NW 6 16.09 Partly Cloudy SCT100 3.1 -1.9 70% 76.43 0.0
06 07:15 Calm 16.09 Partly Cloudy SCT100 2.4 -1.7 75% 76.4 0.0
06 06:55 Calm 16.09 Overcast OVC100 1.1 -1.2 4 -0.1 85% 76.38 0.0
06 06:35 N 6 16.09 Overcast OVC090 0.3 -1.9 85% 76.38 0.0
06 06:15 Calm 16.09 Overcast OVC090 0 -2.4 84% 76.38 0.0
06 05:55 NW 6 16.09 Overcast OVC090 0 -2.8 82% 76.35 0.0
06 05:35 Calm 16.09 Mostly Cloudy BKN090 0 -2.7 82% 76.33 0.0
06 05:15 NW 6 16.09 Overcast OVC090 1 -2.5 78% 76.33 0.0
06 04:55 Calm 16.09 Overcast OVC090 1.8 -2.1 76% 76.33 0.0
06 04:35 Calm 16.09 Overcast OVC090 1.7 -2.4 75% 76.33 0.0
06 04:15 Calm 16.09 Overcast OVC090 1.2 -0.9 86% 76.33 0.0
06 03:55 Calm 16.09 Overcast OVC100 1.9 -2.4 73% 76.28 0.0
06 03:35 Calm 16.09 Mostly Cloudy BKN100 2 -2.7 71% 76.3 0.0
06 03:15 NW 7 16.09 Overcast OVC100 2.1 -2 75% 0 76.3 0.0
06 02:55 NW 6 16.09 Overcast OVC100 2.3 -1.6 76% 76.28 0.0
06 02:35 NW 6 16.09 Overcast OVC100 2.7 -1.9 72% 76.28 0.0
06 02:15 Calm 16.09 Overcast OVC090 2.7 -2.3 70% 76.28 0.0
06 01:55 NW 6 16.09 Partly Cloudy SCT090 2.3 -2.2 72% 76.28 0.0
06 01:19 Calm 16.09 Fair CLR 3 -3 65% 76.25 0.0
06 00:55 N 6 16.09 Fair CLR 4 -4.3 10.8 3.4 55% 76.23 0.0
06 00:30 N 7 16.09 Fair CLR 3.4 -2.8 64% 2 76.23 0.0
06 00:20 N 6 16.09 Fair CLR 4 -2.7 62% 76.23 0.0
05 23:55 N 6 16.09 Fair CLR 5 -3.9 53% 76.23 0.0
05 23:35 N 6 16.09 Fair CLR 4.7 -4.1 53% 76.23 0.0
05 23:15 N 6 16.09 Fair CLR 4.6 -4 54% 76.2 0.0
05 22:55 N 6 16.09 Fair CLR 5.3 -4.5 50% 76.2 0.0
05 22:35 N 6 16.09 Fair CLR 5.8 -4.2 49% 76.2 0.0
05 22:15 N 6 16.09 Fair CLR 6.8 -4.4 45% 76.17 0.0
05 21:55 N 7 16.09 Fair CLR 8 -5.5 38% 7 76.17 0.0
05 21:35 N 6 16.09 Fair CLR 8 -4.7 41% 76.15 0.0
05 21:15 N 11 16.09 Fair CLR 8.9 -5.9 35% 7 76.1 0.0
05 20:55 N 11 16.09 Fair CLR 8.8 -5.5 36% 7 76.1 0.0
05 20:35 N 13 16.09 Fair CLR 9.3 -5.9 34% 8 76.07 0.0
05 20:15 N 17 16.09 Fair CLR 9.6 -5.6 34% 7 76.05 0.0
05 19:55 N 15 16.09 Fair CLR 10.1 -5.5 33% 76.02 0.0
05 19:35 N 17 16.09 Fair CLR 10.5 -4.9 34% 76.02 0.0
05 19:15 N 11 16.09 Fair CLR 10.7 -4.6 34% 76.02 0.0
05 18:55 N 13 16.09 Fair CLR 10.9 -5.2 12.8 10.8 32% 76.02 0.0
05 18:35 N 19 G 28 16.09 Fair CLR 11.5 -4.3 33% 76 0.0
05 18:15 N 15 16.09 Fair CLR 11.5 -4.7 32% 76 0.0
05 17:55 N 24 G 39 16.09 Fair CLR 11.5 -3.4 35% 76 0.0
05 17:35 NW 20 16.09 Fair CLR 11.7 -3.7 34% 76 0.0
05 17:15 N 26 G 31 16.09 Partly Cloudy SCT075 12.1 -3.8 33% 76 0.0
05 16:55 NW 19 G 39 16.09 Partly Cloudy SCT075 12.2 -3.3 34% 76 0.0
05 16:35 N 20 G 33 16.09 Partly Cloudy SCT065 11.7 -3.3 35% 76 0.0
05 16:15 N 19 G 31 16.09 Partly Cloudy SCT065 11.7 -3.6 34% 76.02 0.0
05 15:55 NW 19 16.09 Partly Cloudy SCT065 11.9 -2.8 36% 76.05 0.0
05 15:35 N 24 G 35 16.09 Partly Cloudy SCT065 12.2 -2.3 37% 76.05 0.0
05 15:15 NW 20 G 30 16.09 Mostly Cloudy BKN065 12.2 -2.2 37% 76.05 0.0
05 14:55 NW 24 G 35 16.09 Overcast OVC065 12 -2 38% 76.07 0.0
05 14:35 N 22 G 28 16.09 Overcast BKN070 OVC080 12.1 -2.3 37% 76.07 0.0
05 14:15 W 15 G 33 16.09 Mostly Cloudy BKN060 12.8 -1.2 38% 76.07 0.0
05 13:55 N 17 G 26 16.09 Overcast OVC060 12 -1.6 39% 76.07 0.0
05 13:35 N 17 16.09 Mostly Cloudy BKN060 BKN075 11.8 -1.6 40% 76.07 0.0
05 13:15 N 17 G 28 16.09 Mostly Cloudy BKN065 BKN070 11.4 -2.5 38% 76.1 0.0
05 12:55 N 7 16.09 Mostly Cloudy BKN065 11.1 -2.3 11.7 4.7 39% 76.12 0.0
05 12:35 NW 15 16.09 Partly Cloudy SCT060 SCT065 11.5 -1.1 42% 76.12 0.0
05 12:15 N 13 16.09 Partly Cloudy SCT060 11 -1.2 43% 76.15 0.0
05 11:55 Calm 16.09 Partly Cloudy SCT060 SCT070 10.5 -2.1 42% 76.15 0.0
05 11:35 NE 6 16.09 Partly Cloudy SCT060 SCT090 10.6 -1 45% 76.15 0.0
05 11:15 NW 9 16.09 Fair CLR 9.4 -1.4 47% 8 76.15 0.0
05 10:35 N 7 16.09 Partly Cloudy SCT110 9.1 -0.7 51% 8 76.12 0.0
05 10:15 N 11 16.09 Overcast OVC110 8.2 0.3 58% 7 76.1 0.0
05 09:55 N 7 16.09 Overcast SCT080 OVC100 8.2 0 57% 7 76.1 0.0
05 09:35 NW 6 16.09 Overcast BKN060 OVC080 8 0.2 58% 76.07 0.0
05 09:15 NW 7 16.09 Overcast SCT049 SCT055 OVC070 8 0.1 58% 7 76.07 0.0
05 08:55 NW 9 16.09 Overcast SCT075 BKN090 OVC110 7.6 0.9 63% 6 76.07 0.0
05 08:35 NW 7 16.09 Mostly Cloudy SCT070 SCT085 BKN110 7.2 1.1 66% 6 76.02 0.0
05 08:15 NW 6 16.09 Overcast OVC070 6.5 1.5 71% 76 0.0
05 07:55 NW 9 16.09 Overcast BKN070 BKN080 OVC120 6.3 1 69% 5 76 0.0
05 07:35 NW 9 16.09 Partly Cloudy SCT080 SCT120 6.1 1.2 71% 4 75.97 0.0
Date Time (cdt) Wind (kph) Vis. (km) Weather Sky Cond. Air Dwpt Max. Min. Relative Humidity Wind Chill (°C) Heat Index (°C) altimeter (cm) sea level (mb) 1 hr 3 hr 6 hr
6 hour
Temperature (ºC) Pressure Precipitation (cm)